Terminal Aerodrome Forecast
Issued by NWS Tuscon, AZ

Home | Current Version | Previous Version | Text Only | Print | Product List | Glossary On
Versions: 1 2 3 4 5 6 7 8 9 10 11 12
562
FTUS45 KTWC 231720
TAFDUG
TAF
KDUG 231720Z 2318/2418 33008KT P6SM SCT070
     FM231930 28011G20KT P6SM SCT080
     FM240200 34007KT P6SM SCT080
     FM240600 VRB04KT P6SM SKC=

USA.gov is the U.S. government's official web portal to all federal, state and local government web resources and services.